Time;durP1;ratioP1;P1;durP2;ratioP2;P2;SDS_P1;SDS_P2;PMS_P1;PMS_P2;Temp;Humidity;BMP_temperature;BMP_pressure;BME280_temperature;BME280_humidity;BME280_pressure;Samples;Min_cycle;Max_cycle;Signal;HPM_P1;HPM_P2
2021/05/31 00:01:04;;;;;;;5.70;3.90;;;;;;;6.98;81.04;102033.13;4996814;28;20175;-67
2021/05/31 00:03:29;;;;;;;4.20;3.33;;;;;;;6.92;81.11;102045.66;5014170;28;20184;-67
2021/05/31 00:05:54;;;;;;;5.70;3.40;;;;;;;6.86;81.62;102036.03;5013411;28;20568;-65
2021/05/31 00:08:19;;;;;;;9.03;3.60;;;;;;;6.80;81.81;102029.06;4996620;28;20202;-65
2021/05/31 00:10:45;;;;;;;5.53;3.87;;;;;;;6.81;81.73;102022.84;5013897;28;20179;-65
2021/05/31 00:13:10;;;;;;;5.90;3.67;;;;;;;6.94;81.21;102020.84;5013706;28;20236;-67
2021/05/31 00:15:36;;;;;;;6.87;3.73;;;;;;;7.12;81.50;102025.81;5013876;28;20506;-66
2021/05/31 00:18:01;;;;;;;5.80;3.33;;;;;;;7.38;79.97;102021.72;5013665;28;20200;-66
2021/05/31 00:20:26;;;;;;;4.40;3.20;;;;;;;7.38;79.66;102019.94;5013812;28;20177;-66
2021/05/31 00:22:52;;;;;;;7.33;3.70;;;;;;;7.40;80.12;102015.47;5013672;28;20180;-66
2021/05/31 00:25:17;;;;;;;5.90;3.47;;;;;;;7.51;79.31;102026.75;4996083;28;20165;-66
2021/05/31 00:27:43;;;;;;;8.40;3.47;;;;;;;7.52;79.58;102019.66;5013479;28;20179;-66
2021/05/31 00:30:09;;;;;;;5.90;2.93;;;;;;;7.57;78.90;102009.81;5013407;28;20514;-66
2021/05/31 00:32:35;;;;;;;9.57;4.43;;;;;;;7.39;79.03;102018.16;4995864;28;20704;-66
2021/05/31 00:35:00;;;;;;;9.77;3.60;;;;;;;7.37;79.91;102014.66;5013550;28;20204;-66
2021/05/31 00:37:25;;;;;;;5.23;3.60;;;;;;;7.43;80.24;102014.53;5013274;28;20213;-66
2021/05/31 00:39:51;;;;;;;5.40;3.20;;;;;;;7.35;80.34;102016.47;4996115;28;20177;-66
2021/05/31 00:42:16;;;;;;;8.27;3.47;;;;;;;7.13;80.48;102018.72;5013742;28;20541;-66
2021/05/31 00:44:42;;;;;;;5.17;3.67;;;;;;;7.07;80.49;102022.38;5013648;28;20553;-66
2021/05/31 00:47:07;;;;;;;7.97;3.17;;;;;;;7.43;80.68;102011.88;4995795;28;20671;-66
2021/05/31 00:49:36;;;;;;;5.73;3.00;;;;;;;7.64;79.85;102014.06;5013616;28;20176;-67
2021/05/31 00:52:06;;;;;;;8.37;2.97;;;;;;;7.59;80.08;102015.97;4979887;28;20174;-66
2021/05/31 00:54:31;;;;;;;10.80;3.40;;;;;;;7.59;80.33;102025.72;4996064;28;20172;-66
2021/05/31 00:56:57;;;;;;;8.87;3.73;;;;;;;7.32;79.89;102020.06;4995938;28;20199;-66
2021/05/31 00:59:22;;;;;;;6.37;3.37;;;;;;;6.92;80.57;102022.63;4995647;28;20553;-66
2021/05/31 01:01:48;;;;;;;7.00;3.60;;;;;;;6.78;81.32;102022.03;5013097;28;20179;-66
2021/05/31 01:04:14;;;;;;;6.40;3.60;;;;;;;6.46;82.71;102023.47;5013269;28;20249;-66
2021/05/31 01:06:43;;;;;;;8.17;3.50;;;;;;;6.27;83.79;102016.72;4995473;28;20192;-67
2021/05/31 01:09:18;;;;;;;7.50;3.53;;;;;;;6.18;84.13;102014.22;5013093;28;20171;-65
2021/05/31 01:11:56;;;;;;;6.30;3.47;;;;;;;6.12;83.41;102006.38;5013479;28;20159;-65
2021/05/31 01:14:39;;;;;;;7.17;4.17;;;;;;;5.95;84.73;102010.16;4995593;28;20176;-66
2021/05/31 01:17:30;;;;;;;7.00;4.10;;;;;;;6.04;85.91;102003.84;4981340;28;20664;-66
2021/05/31 01:20:02;;;;;;;8.37;3.87;;;;;;;6.20;85.55;102002.69;5017372;28;20165;-65
2021/05/31 01:22:32;;;;;;;8.30;3.97;;;;;;;6.24;84.56;101996.44;5017278;28;20533;-64
2021/05/31 01:25:08;;;;;;;7.37;4.10;;;;;;;5.92;84.72;102006.66;4999237;28;20266;-66
2021/05/31 01:28:00;;;;;;;5.90;4.17;;;;;;;5.83;85.71;101994.41;4999417;28;20192;-66
2021/05/31 01:30:25;;;;;;;8.33;4.00;;;;;;;5.87;86.64;101993.44;4999255;28;20172;-66
2021/05/31 01:32:52;;;;;;;6.87;4.37;;;;;;;5.82;87.06;101989.13;5016706;28;20169;-66
2021/05/31 01:35:27;;;;;;;9.30;4.77;;;;;;;5.93;87.61;101985.44;5016856;28;20189;-65
2021/05/31 01:37:54;;;;;;;14.00;5.60;;;;;;;5.90;87.47;101988.13;5017950;28;20199;-66
2021/05/31 01:40:20;;;;;;;8.37;5.00;;;;;;;5.90;88.11;101985.47;4999693;28;20657;-66
2021/05/31 01:42:45;;;;;;;5.97;4.53;;;;;;;5.94;87.35;101987.19;4982561;28;20177;-66
2021/05/31 01:45:11;;;;;;;7.83;4.83;;;;;;;5.96;86.93;101989.84;4998884;28;20173;-66
2021/05/31 01:47:37;;;;;;;6.30;4.63;;;;;;;5.89;87.73;101983.72;4998716;28;20189;-66
2021/05/31 01:50:04;;;;;;;5.83;4.07;;;;;;;6.04;88.10;101987.06;4998799;28;20597;-66
2021/05/31 01:52:30;;;;;;;7.63;4.87;;;;;;;5.92;86.75;101983.69;5016179;28;20185;-65
2021/05/31 01:54:56;;;;;;;6.13;3.90;;;;;;;6.03;86.46;101987.97;4998793;28;20181;-66
2021/05/31 01:57:22;;;;;;;7.77;3.97;;;;;;;6.01;85.41;101989.75;5016054;28;20197;-66
2021/05/31 01:59:48;;;;;;;8.40;4.30;;;;;;;5.96;85.08;101989.84;5016407;28;20174;-66
2021/05/31 02:02:14;;;;;;;5.67;3.97;;;;;;;6.18;86.11;101996.53;4998960;28;20264;-65
2021/05/31 02:04:39;;;;;;;7.33;4.70;;;;;;;6.22;84.89;101992.06;4982397;28;20207;-65
2021/05/31 02:07:04;;;;;;;6.33;4.93;;;;;;;5.91;84.44;101976.63;5015981;28;20287;-66
2021/05/31 02:09:29;;;;;;;6.90;5.00;;;;;;;5.86;87.15;101983.75;5015983;28;20212;-66
2021/05/31 02:12:04;;;;;;;8.87;4.40;;;;;;;5.87;87.84;101980.19;5016206;28;20212;-66
2021/05/31 02:14:42;;;;;;;9.60;4.83;;;;;;;5.76;87.28;101981.28;5015839;28;20660;-66
2021/05/31 02:17:32;;;;;;;8.17;5.27;;;;;;;5.59;87.67;101974.47;4998242;28;20227;-66
2021/05/31 02:20:05;;;;;;;8.60;5.67;;;;;;;5.55;88.17;101972.72;4983563;28;20149;-66
2021/05/31 02:22:31;;;;;;;6.13;4.77;;;;;;;5.52;88.26;101970.13;4982135;28;20648;-66
2021/05/31 02:24:57;;;;;;;8.97;4.77;;;;;;;5.48;88.37;101972.84;4998165;28;20177;-66
2021/05/31 02:27:22;;;;;;;11.53;4.43;;;;;;;5.43;88.54;101970.25;4981461;28;20475;-66
2021/05/31 02:29:48;;;;;;;7.73;4.53;;;;;;;5.42;89.26;101980.88;5015055;28;20668;-66
2021/05/31 02:32:13;;;;;;;12.67;4.80;;;;;;;5.51;89.77;101972.78;5015570;28;20541;-66
2021/05/31 02:34:38;;;;;;;9.33;5.33;;;;;;;5.46;89.25;101969.34;4981723;28;20526;-66
2021/05/31 02:37:04;;;;;;;6.87;4.83;;;;;;;5.46;89.97;101975.50;4997687;28;20200;-66
2021/05/31 02:39:29;;;;;;;7.53;4.70;;;;;;;5.54;89.24;101976.25;4997907;28;20204;-66
2021/05/31 02:41:54;;;;;;;8.47;5.20;;;;;;;5.47;88.92;101963.13;4981631;28;20177;-66
2021/05/31 02:44:20;;;;;;;6.90;4.80;;;;;;;5.33;89.60;101969.50;4997783;28;20177;-66
2021/05/31 02:46:45;;;;;;;12.17;5.47;;;;;;;5.30;89.80;101972.19;4997889;28;20235;-66
2021/05/31 02:49:10;;;;;;;9.03;6.10;;;;;;;5.32;90.30;101970.41;4981377;28;20220;-66
2021/05/31 02:51:38;;;;;;;8.00;4.80;;;;;;;5.29;89.45;101959.84;5015610;28;20235;-66
2021/05/31 02:54:03;;;;;;;13.10;6.50;;;;;;;5.30;89.56;101966.03;4998535;28;20177;-66
2021/05/31 02:56:29;;;;;;;14.03;5.63;;;;;;;5.32;90.31;101966.88;5015662;28;20350;-66
2021/05/31 02:58:54;;;;;;;10.83;5.67;;;;;;;5.33;90.95;101972.16;5015409;28;20208;-66
2021/05/31 03:01:19;;;;;;;15.93;8.83;;;;;;;5.46;90.73;101962.25;5015506;28;20272;-66
2021/05/31 03:03:44;;;;;;;9.33;5.30;;;;;;;5.53;89.78;101963.03;5015166;28;20181;-66
2021/05/31 03:06:10;;;;;;;6.83;4.43;;;;;;;5.71;88.08;101967.22;4997677;28;20220;-65
2021/05/31 03:08:35;;;;;;;6.67;4.90;;;;;;;5.65;87.38;101974.38;4997378;28;20234;-66
2021/05/31 03:11:00;;;;;;;9.50;4.90;;;;;;;5.65;87.29;101973.50;5014731;28;20173;-66
2021/05/31 03:13:26;;;;;;;6.70;4.90;;;;;;;5.73;88.39;101976.91;4997377;28;20546;-66
2021/05/31 03:15:53;;;;;;;7.87;5.03;;;;;;;5.82;87.98;101971.44;5014722;28;20688;-65
2021/05/31 03:18:18;;;;;;;7.80;4.87;;;;;;;5.97;86.48;101978.34;5014811;28;20196;-66
2021/05/31 03:20:44;;;;;;;8.53;6.07;;;;;;;6.05;86.25;101975.56;5014644;28;20587;-65
2021/05/31 03:23:09;;;;;;;8.97;6.03;;;;;;;5.98;85.47;101971.25;5014704;28;20268;-66
2021/05/31 03:25:34;;;;;;;9.33;5.33;;;;;;;5.89;87.30;101978.44;4996875;28;20541;-66
2021/05/31 03:28:00;;;;;;;9.10;4.97;;;;;;;5.87;87.38;101974.03;5014571;28;20181;-65
2021/05/31 03:30:25;;;;;;;12.17;5.37;;;;;;;5.94;87.89;101965.09;5014741;28;20205;-65
2021/05/31 03:32:51;;;;;;;7.17;4.70;;;;;;;6.05;86.77;101972.91;5014502;28;20165;-65
2021/05/31 03:35:17;;;;;;;9.70;5.40;;;;;;;6.32;85.70;101968.91;5014268;28;20173;-65
2021/05/31 03:37:42;;;;;;;7.77;5.20;;;;;;;5.99;85.32;101970.38;4996416;28;20209;-65
2021/05/31 03:40:09;;;;;;;9.67;5.47;;;;;;;5.63;85.74;101964.69;5014172;28;20217;-65
2021/05/31 03:42:34;;;;;;;9.83;6.67;;;;;;;5.79;87.52;101967.97;4996850;28;20185;-65
2021/05/31 03:45:00;;;;;;;8.83;5.90;;;;;;;5.74;88.36;101960.09;5014337;28;20659;-65
2021/05/31 03:47:25;;;;;;;8.37;5.40;;;;;;;5.97;87.34;101956.25;4980003;28;20193;-65
2021/05/31 03:49:50;;;;;;;6.10;4.53;;;;;;;6.25;85.88;101968.13;4996257;28;20177;-65
2021/05/31 03:52:16;;;;;;;9.97;5.67;;;;;;;6.09;85.90;101961.34;4996393;28;20177;-67
2021/05/31 03:54:41;;;;;;;7.13;5.57;;;;;;;5.92;86.72;101967.78;5014528;28;20181;-65
2021/05/31 03:57:06;;;;;;;5.90;4.37;;;;;;;6.02;87.62;101965.88;5013537;28;20188;-66
2021/05/31 03:59:32;;;;;;;6.33;4.40;;;;;;;6.22;87.92;101965.53;5013742;28;20255;-66
2021/05/31 04:01:57;;;;;;;8.20;4.90;;;;;;;6.76;84.25;101962.81;4996377;28;20188;-65
2021/05/31 04:04:23;;;;;;;5.30;3.73;;;;;;;6.90;83.34;101966.06;5013772;28;20180;-65
2021/05/31 04:11:58;;;;;;;6.77;3.83;;;;;;;6.79;84.12;101973.38;5013682;28;20235;-65
2021/05/31 04:14:24;;;;;;;9.07;3.70;;;;;;;7.06;82.63;101959.56;5013632;28;20188;-66
2021/05/31 04:16:51;;;;;;;9.67;3.90;;;;;;;7.22;82.52;101968.06;5013398;28;20740;-65
2021/05/31 04:19:18;;;;;;;6.13;3.43;;;;;;;7.32;82.07;101958.13;4995952;28;20203;-65
2021/05/31 04:21:46;;;;;;;9.13;3.67;;;;;;;7.51;80.79;101955.03;4995913;28;20614;-66
2021/05/31 04:24:12;;;;;;;7.77;4.23;;;;;;;7.64;79.60;101955.63;4996050;28;20237;-66
2021/05/31 04:26:39;;;;;;;7.17;3.87;;;;;;;7.59;79.79;101962.81;4979327;28;20707;-66
2021/05/31 04:29:05;;;;;;;7.77;4.23;;;;;;;7.61;79.98;101961.00;4995856;28;20173;-66
2021/05/31 04:31:32;;;;;;;6.43;3.40;;;;;;;7.65;81.13;101960.03;5013170;28;20182;-66
2021/05/31 04:33:57;;;;;;;5.23;4.10;;;;;;;7.74;80.96;101965.13;4996287;28;20700;-66
2021/05/31 04:36:23;;;;;;;7.23;4.03;;;;;;;7.80;80.18;101965.00;5013149;28;20240;-66
2021/05/31 04:38:48;;;;;;;6.13;3.87;;;;;;;7.87;80.09;101963.06;4995527;28;20234;-66
2021/05/31 04:41:13;;;;;;;4.53;3.37;;;;;;;7.74;78.27;101961.59;4995626;28;20169;-66
2021/05/31 04:43:38;;;;;;;5.90;4.37;;;;;;;7.63;78.22;101958.31;5013433;28;20175;-67
2021/05/31 04:46:04;;;;;;;5.80;4.10;;;;;;;7.64;78.42;101955.63;5013092;28;20691;-66
2021/05/31 04:48:30;;;;;;;6.73;4.50;;;;;;;7.90;79.15;101956.81;4979232;28;20652;-66
2021/05/31 04:50:56;;;;;;;6.83;3.47;;;;;;;8.07;79.21;101955.47;4995475;28;20272;-66
2021/05/31 04:53:26;;;;;;;4.80;3.60;;;;;;;8.26;79.25;101958.56;4995514;28;20179;-66
2021/05/31 04:55:54;;;;;;;4.90;3.50;;;;;;;8.39;78.61;101957.34;5013036;28;20203;-66
2021/05/31 04:58:21;;;;;;;4.57;3.80;;;;;;;8.35;78.48;101962.78;5013017;28;20205;-66
2021/05/31 05:00:46;;;;;;;4.83;3.47;;;;;;;8.36;77.54;101968.06;4995442;28;20209;-66
2021/05/31 05:03:11;;;;;;;6.40;3.13;;;;;;;8.52;77.35;101970.31;4996040;28;20196;-66
2021/05/31 05:05:37;;;;;;;3.60;3.10;;;;;;;8.61;76.73;101963.00;5012987;28;20184;-66
2021/05/31 05:08:02;;;;;;;6.27;3.17;;;;;;;8.73;76.10;101960.00;5013215;28;20612;-66
2021/05/31 05:10:28;;;;;;;5.83;3.47;;;;;;;8.75;76.46;101965.28;5013282;28;20177;-66
2021/05/31 05:12:53;;;;;;;3.80;3.27;;;;;;;8.93;76.47;101964.78;4995564;28;20260;-66
2021/05/31 05:15:20;;;;;;;12.77;3.40;;;;;;;9.12;75.52;101956.25;5013204;28;20775;-67
2021/05/31 05:17:46;;;;;;;4.33;3.20;;;;;;;9.12;75.34;101964.22;5012478;28;20277;-66
2021/05/31 05:20:13;;;;;;;4.67;3.20;;;;;;;9.21;75.70;101967.50;4995230;28;20216;-66
2021/05/31 05:22:38;;;;;;;4.47;3.57;;;;;;;9.31;75.67;101960.13;5012696;28;20525;-66
2021/05/31 05:25:04;;;;;;;7.10;3.33;;;;;;;9.31;76.08;101961.00;5012878;28;20169;-66
2021/05/31 05:27:30;;;;;;;6.20;3.77;;;;;;;9.37;75.91;101959.94;5012335;28;20205;-67
2021/05/31 05:29:55;;;;;;;5.67;3.10;;;;;;;9.47;75.67;101960.53;5012844;28;20647;-66
2021/05/31 05:32:21;;;;;;;5.23;2.93;;;;;;;9.57;75.44;101965.53;5012761;28;20586;-66
2021/05/31 05:34:46;;;;;;;4.87;3.50;;;;;;;9.61;75.43;101964.50;5012834;28;20183;-66
2021/05/31 05:37:16;;;;;;;5.43;3.60;;;;;;;9.56;76.53;101970.91;4994905;28;20211;-65
2021/05/31 05:40:07;;;;;;;4.30;3.20;;;;;;;9.58;77.56;101969.06;5012635;28;20173;-66
2021/05/31 05:42:56;;;;;;;7.20;3.40;;;;;;;9.75;77.03;101971.22;4995016;28;20177;-66
2021/05/31 05:47:49;;;;;;;5.43;2.87;;;;;;;10.16;74.49;101967.22;5012756;28;20681;-66
2021/05/31 05:50:17;;;;;;;4.30;2.20;;;;;;;10.41;74.29;101964.63;4979008;28;20182;-67
2021/05/31 05:52:42;;;;;;;3.20;2.17;;;;;;;10.79;73.11;101968.63;4994934;28;20173;-66
2021/05/31 05:55:08;;;;;;;2.87;2.13;;;;;;;10.86;71.73;101963.00;4994655;28;20554;-66
2021/05/31 05:57:34;;;;;;;6.10;2.67;;;;;;;11.01;70.41;101963.38;5012252;28;20546;-66
2021/05/31 06:00:03;;;;;;;7.63;2.50;;;;;;;10.93;71.68;101969.00;5012882;28;20173;-67
2021/05/31 06:02:28;;;;;;;5.10;2.47;;;;;;;11.13;71.21;101974.47;5012768;28;20177;-67
2021/05/31 06:04:53;;;;;;;5.23;2.30;;;;;;;11.19;70.37;101974.25;5016244;28;20177;-66
2021/05/31 06:07:18;;;;;;;5.90;2.70;;;;;;;11.16;69.43;101971.69;5016720;28;20247;-66
2021/05/31 06:09:44;;;;;;;3.30;2.27;;;;;;;11.27;69.69;101965.94;4998349;28;20208;-66
2021/05/31 06:12:09;;;;;;;3.87;2.20;;;;;;;11.36;70.21;101964.72;4982088;28;20188;-65
2021/05/31 06:14:34;;;;;;;5.27;2.43;;;;;;;11.32;67.91;101963.97;5015774;28;20180;-66
2021/05/31 06:17:00;;;;;;;5.33;2.60;;;;;;;11.23;68.97;101969.66;5015658;28;20200;-65
2021/05/31 06:19:28;;;;;;;5.53;1.90;;;;;;;11.43;68.25;101964.41;5016011;28;20197;-66
2021/05/31 06:21:53;;;;;;;4.27;2.10;;;;;;;11.37;67.66;101978.03;5015744;28;20208;-66
2021/05/31 06:24:18;;;;;;;8.83;2.83;;;;;;;11.63;67.71;101965.47;5015594;28;20173;-66
2021/05/31 06:26:44;;;;;;;3.27;2.00;;;;;;;11.83;65.92;101974.44;5015810;28;20197;-66
2021/05/31 06:29:09;;;;;;;3.47;2.10;;;;;;;12.09;63.78;101964.50;4998211;28;20691;-65
2021/05/31 06:31:34;;;;;;;4.40;2.10;;;;;;;11.85;63.20;101966.38;5015912;28;20511;-67
2021/05/31 06:33:59;;;;;;;4.17;2.23;;;;;;;12.09;62.99;101973.41;5015588;28;20181;-65
2021/05/31 06:36:26;;;;;;;6.10;2.50;;;;;;;12.08;63.95;101968.13;5015626;28;20249;-66
2021/05/31 06:38:51;;;;;;;5.73;2.33;;;;;;;12.25;62.71;101970.06;5015436;28;20216;-66
2021/05/31 06:41:16;;;;;;;6.97;1.87;;;;;;;11.99;64.25;101969.38;4998937;28;20533;-66
2021/05/31 06:43:41;;;;;;;5.87;1.93;;;;;;;12.15;63.75;101967.78;5015666;28;20200;-66
2021/05/31 06:46:08;;;;;;;4.73;2.20;;;;;;;12.44;63.00;101968.38;4997651;28;20197;-66
2021/05/31 06:48:33;;;;;;;4.10;2.13;;;;;;;12.49;61.89;101969.06;4997735;28;20633;-67
2021/05/31 06:50:58;;;;;;;4.17;1.97;;;;;;;12.61;59.38;101957.81;5017693;28;20172;-66
2021/05/31 06:53:24;;;;;;;3.10;1.97;;;;;;;12.48;60.64;101956.59;5016984;28;20185;-66
2021/05/31 06:55:49;;;;;;;3.77;1.87;;;;;;;12.59;60.84;101957.00;4998297;28;20288;-66
2021/05/31 06:58:14;;;;;;;6.60;2.30;;;;;;;12.67;61.28;101954.00;5015295;28;20204;-66
2021/05/31 07:00:40;;;;;;;7.10;1.87;;;;;;;12.91;59.00;101960.06;5015560;28;20207;-66
2021/05/31 07:03:08;;;;;;;7.17;3.60;;;;;;;12.84;60.22;101956.81;4997600;28;20177;-66
2021/05/31 07:05:33;;;;;;;2.60;1.90;;;;;;;13.03;58.94;101956.88;4997490;28;20173;-65
2021/05/31 07:07:59;;;;;;;7.40;2.00;;;;;;;12.69;55.88;101952.13;5014929;28;20621;-67
2021/05/31 07:10:27;;;;;;;6.47;1.50;;;;;;;12.95;57.59;101951.81;4997780;28;20197;-67
2021/05/31 07:12:52;;;;;;;4.53;1.60;;;;;;;12.79;57.68;101957.00;4997524;28;20173;-67
2021/05/31 07:15:20;;;;;;;3.77;1.70;;;;;;;13.19;57.09;101941.84;4997449;28;20649;-66
2021/05/31 07:17:45;;;;;;;3.20;1.60;;;;;;;13.34;54.71;101950.97;5014838;28;20561;-67
2021/05/31 07:20:12;;;;;;;3.43;1.80;;;;;;;13.14;55.65;101947.38;5014620;28;20169;-67
2021/05/31 07:22:39;;;;;;;4.07;1.80;;;;;;;13.07;56.40;101942.38;5014777;28;20223;-67
2021/05/31 07:25:06;;;;;;;2.90;2.20;;;;;;;13.51;55.89;101943.00;4997021;28;20173;-67
2021/05/31 07:27:31;;;;;;;4.43;1.57;;;;;;;13.70;54.62;101948.34;4996927;28;20197;-67
2021/05/31 07:29:56;;;;;;;2.50;1.70;;;;;;;13.65;53.89;101945.03;4997082;28;20180;-67
2021/05/31 07:32:22;;;;;;;8.33;1.83;;;;;;;13.76;53.04;101943.59;4996866;28;20169;-67
2021/05/31 07:34:47;;;;;;;5.60;1.70;;;;;;;13.84;52.27;101950.38;5014344;28;20270;-67
2021/05/31 07:37:12;;;;;;;3.40;1.70;;;;;;;13.92;52.35;101938.31;5027616;22;20235;-70
2021/05/31 07:39:38;;;;;;;5.07;1.80;;;;;;;13.96;53.17;101937.22;5014585;28;20661;-70
2021/05/31 07:42:04;;;;;;;2.13;1.33;;;;;;;14.06;52.67;101941.19;4980594;28;20181;-70
2021/05/31 07:44:29;;;;;;;3.43;1.60;;;;;;;14.11;51.27;101935.56;4996683;28;20180;-70
2021/05/31 07:46:55;;;;;;;6.67;2.00;;;;;;;14.21;50.88;101934.19;5014157;28;20222;-70
2021/05/31 07:49:20;;;;;;;4.73;1.70;;;;;;;14.11;50.16;101932.91;4980662;28;20177;-70
2021/05/31 07:51:46;;;;;;;3.17;1.53;;;;;;;14.13;50.32;101927.47;4996758;28;20179;-70
2021/05/31 07:54:12;;;;;;;2.67;1.60;;;;;;;14.29;50.09;101937.34;5014494;28;20177;-70
2021/05/31 07:56:38;;;;;;;1.30;1.13;;;;;;;14.44;48.42;101930.34;5014556;28;20200;-70
2021/05/31 07:59:03;;;;;;;3.40;1.60;;;;;;;14.59;47.57;101940.31;4996571;28;20211;-70
2021/05/31 08:01:29;;;;;;;5.93;1.50;;;;;;;14.29;47.77;101942.72;4996845;28;20172;-72
2021/05/31 08:03:54;;;;;;;1.87;1.30;;;;;;;14.32;48.25;101934.50;4996331;28;20649;-70
2021/05/31 08:06:20;;;;;;;3.57;1.43;;;;;;;14.23;46.58;101936.78;4996254;28;20254;-70
2021/05/31 08:08:45;;;;;;;5.03;1.60;;;;;;;14.58;46.60;101926.97;5014208;28;20173;-71
2021/05/31 08:11:11;;;;;;;1.03;0.83;;;;;;;14.82;44.47;101922.09;4979863;28;20177;-70
2021/05/31 08:13:37;;;;;;;3.47;1.70;;;;;;;14.88;45.83;101922.66;4979788;28;20192;-71
2021/05/31 08:16:03;;;;;;;4.20;1.40;;;;;;;14.88;45.10;101919.09;4995939;28;20191;-70
2021/05/31 08:18:29;;;;;;;3.67;1.30;;;;;;;14.95;44.81;101917.81;5013915;28;20204;-71
2021/05/31 08:20:54;;;;;;;8.00;1.40;;;;;;;14.80;44.06;101922.16;4979847;28;20549;-70
2021/05/31 08:23:19;;;;;;;2.50;1.40;;;;;;;14.82;44.46;101914.88;4996081;28;20541;-70
2021/05/31 08:25:44;;;;;;;1.37;1.00;;;;;;;14.81;43.83;101913.16;4995874;28;20200;-70
2021/05/31 08:28:10;;;;;;;3.07;1.23;;;;;;;14.59;43.82;101908.06;4995815;28;20629;-70
2021/05/31 08:30:36;;;;;;;2.60;0.93;;;;;;;14.96;43.33;101914.16;4996016;28;20170;-71
2021/05/31 08:33:04;;;;;;;2.70;1.47;;;;;;;15.07;43.65;101914.44;4979527;28;20249;-71
2021/05/31 08:35:29;;;;;;;2.53;1.23;;;;;;;15.35;41.28;101913.81;4995849;28;20177;-70
2021/05/31 08:37:55;;;;;;;2.63;1.40;;;;;;;15.38;43.20;101915.44;4979302;28;20216;-70
2021/05/31 08:40:20;;;;;;;2.67;1.20;;;;;;;15.60;42.41;101914.16;4996032;28;20247;-70
2021/05/31 08:42:46;;;;;;;3.10;1.43;;;;;;;15.56;41.31;101906.31;4979650;28;20235;-70
2021/05/31 08:45:17;;;;;;;1.93;1.17;;;;;;;15.68;40.01;101905.69;4980623;28;20185;-70
2021/05/31 08:47:45;;;;;;;1.27;1.10;;;;;;;15.74;38.35;101899.06;4996665;28;20556;-72
2021/05/31 08:50:13;;;;;;;2.10;1.00;;;;;;;15.81;34.73;101900.44;4996803;28;20272;-72
2021/05/31 08:52:38;;;;;;;2.90;1.40;;;;;;;15.38;36.08;101896.63;4996182;28;20195;-71
2021/05/31 08:55:12;;;;;;;2.70;1.33;;;;;;;15.66;37.34;101899.53;4995727;28;20236;-71
2021/05/31 08:57:38;;;;;;;2.10;1.07;;;;;;;15.68;36.97;101886.84;4995878;28;20209;-72
2021/05/31 09:00:06;;;;;;;1.80;0.97;;;;;;;15.93;36.68;101886.25;5013272;28;20600;-71
2021/05/31 09:02:33;;;;;;;1.60;0.77;;;;;;;16.09;35.52;101894.31;5013369;28;20177;-72
2021/05/31 09:04:59;;;;;;;0.83;0.83;;;;;;;16.36;36.24;101891.81;5013768;28;20173;-72
2021/05/31 09:07:25;;;;;;;3.03;1.63;;;;;;;16.39;37.61;101887.09;4995605;28;20199;-71
2021/05/31 09:09:53;;;;;;;1.33;1.00;;;;;;;16.36;37.80;101887.28;5013555;28;20184;-72
2021/05/31 09:12:22;;;;;;;1.73;1.03;;;;;;;16.58;35.86;101885.00;5013445;28;20187;-72
2021/05/31 09:14:55;;;;;;;4.90;1.30;;;;;;;16.57;36.79;101885.09;4997278;28;20187;-71
2021/05/31 09:17:25;;;;;;;2.40;1.10;;;;;;;16.73;36.01;101879.69;4979226;28;20200;-71
2021/05/31 09:19:50;;;;;;;3.57;1.20;;;;;;;16.80;38.02;101873.81;4995665;28;20636;-71
2021/05/31 09:22:16;;;;;;;2.43;1.23;;;;;;;16.77;37.93;101870.44;4995568;28;20181;-72
2021/05/31 09:24:52;;;;;;;2.17;1.23;;;;;;;16.36;39.67;101867.56;4995598;28;20176;-71
2021/05/31 09:27:17;;;;;;;1.90;1.27;;;;;;;16.79;38.77;101865.81;4995733;28;20684;-72
2021/05/31 09:29:54;;;;;;;3.17;1.20;;;;;;;16.70;39.94;101867.22;5012911;28;20231;-71
2021/05/31 09:32:19;;;;;;;2.13;1.30;;;;;;;17.02;39.85;101865.22;4995365;28;20179;-71
2021/05/31 09:34:45;;;;;;;6.27;1.23;;;;;;;16.98;39.59;101863.69;4995176;28;20177;-71
2021/05/31 09:37:10;;;;;;;3.10;1.37;;;;;;;17.08;39.20;101866.66;4995857;28;20621;-72
2021/05/31 09:39:40;;;;;;;3.13;1.20;;;;;;;17.29;39.45;101872.50;5016601;28;20267;-71
2021/05/31 09:42:13;;;;;;;1.90;1.10;;;;;;;17.38;40.63;101861.97;4999216;28;20252;-71
2021/05/31 09:44:40;;;;;;;3.70;1.30;;;;;;;17.47;40.53;101863.25;4982744;28;20566;-70
2021/05/31 09:47:05;;;;;;;2.50;1.37;;;;;;;17.50;40.25;101861.19;4982404;28;20300;-72
2021/05/31 09:49:30;;;;;;;5.60;1.33;;;;;;;17.48;39.25;101863.13;4999042;28;20533;-71
2021/05/31 09:52:07;;;;;;;2.63;1.57;;;;;;;17.61;39.23;101857.78;5016313;28;20173;-71
2021/05/31 09:54:41;;;;;;;4.07;1.20;;;;;;;17.57;39.50;101858.09;4999164;28;20161;-71
2021/05/31 09:57:27;;;;;;;2.63;1.37;;;;;;;17.35;39.45;101855.91;4982432;28;20203;-71
2021/05/31 09:59:58;;;;;;;2.50;1.43;;;;;;;17.38;39.47;101847.63;4999271;28;20629;-72
2021/05/31 10:02:33;;;;;;;2.93;1.37;;;;;;;17.37;40.26;101841.38;4999008;28;20211;-71
2021/05/31 10:05:08;;;;;;;1.73;1.40;;;;;;;17.55;39.59;101843.84;4999542;28;20168;-71
2021/05/31 10:10:29;;;;;;;2.87;1.60;;;;;;;17.75;39.62;101836.16;4967963;28;20190;-71
2021/05/31 10:12:55;;;;;;;5.43;1.53;;;;;;;17.76;39.88;101840.59;4999129;28;20168;-70
2021/05/31 10:15:24;;;;;;;3.03;1.40;;;;;;;17.98;40.89;101844.56;4998430;28;20242;-70
2021/05/31 10:17:53;;;;;;;4.57;1.57;;;;;;;18.17;39.94;101841.44;4998331;28;20208;-71
2021/05/31 10:20:18;;;;;;;4.30;1.30;;;;;;;18.18;40.00;101840.47;5016002;28;20210;-70
2021/05/31 10:22:44;;;;;;;4.60;1.90;;;;;;;18.21;39.18;101835.75;4998388;28;20220;-70
2021/05/31 10:25:11;;;;;;;3.40;1.30;;;;;;;18.54;38.46;101837.03;4998499;28;20180;-69
2021/05/31 10:27:37;;;;;;;2.73;1.50;;;;;;;18.84;39.21;101829.50;4998157;28;20753;-70
2021/05/31 10:30:06;;;;;;;6.50;1.97;;;;;;;18.98;38.59;101825.81;4998369;28;20216;-70
2021/05/31 10:32:31;;;;;;;3.70;1.20;;;;;;;18.90;40.41;101823.63;4998036;28;20177;-70
2021/05/31 10:34:57;;;;;;;2.90;1.60;;;;;;;18.99;38.53;101822.13;4981564;28;20560;-72
2021/05/31 10:37:30;;;;;;;3.40;1.47;;;;;;;18.91;38.53;101814.53;4997682;28;20219;-71
2021/05/31 10:40:15;;;;;;;2.57;1.70;;;;;;;19.12;39.16;101814.84;4997878;28;20226;-70
2021/05/31 10:42:54;;;;;;;2.60;1.50;;;;;;;19.67;38.81;101817.00;4997464;28;20192;-71
2021/05/31 10:45:23;;;;;;;3.40;1.73;;;;;;;19.17;38.08;101815.34;4997656;28;20188;-70
2021/05/31 10:48:06;;;;;;;4.03;1.90;;;;;;;18.78;39.99;101807.44;5015152;28;20197;-70
2021/05/31 10:50:37;;;;;;;3.07;1.87;;;;;;;19.73;38.60;101812.16;4997032;28;20638;-70
2021/05/31 10:53:06;;;;;;;3.23;1.47;;;;;;;19.66;38.08;101818.00;4998023;28;20166;-70
2021/05/31 10:55:31;;;;;;;1.43;1.33;;;;;;;19.65;38.37;101812.69;4997758;28;20208;-70
2021/05/31 10:57:58;;;;;;;5.13;2.03;;;;;;;19.13;38.35;101818.41;4997588;28;20224;-70
2021/05/31 11:00:30;;;;;;;3.67;1.60;;;;;;;20.47;36.75;101808.19;4997580;28;20672;-70
2021/05/31 11:03:04;;;;;;;3.67;1.90;;;;;;;21.96;33.10;101803.13;4997635;28;20209;-70
2021/05/31 11:05:31;;;;;;;2.93;1.70;;;;;;;23.56;30.49;101806.06;4997412;28;20173;-71
2021/05/31 11:07:56;;;;;;;6.13;1.93;;;;;;;23.96;30.00;101797.75;4997609;28;20259;-70
2021/05/31 11:10:28;;;;;;;2.90;1.60;;;;;;;25.58;27.86;101809.19;4997311;28;20173;-70
2021/05/31 11:12:53;;;;;;;7.07;1.60;;;;;;;25.38;27.92;101802.19;4980939;28;20164;-70
2021/05/31 11:15:20;;;;;;;5.00;1.67;;;;;;;25.04;28.58;101786.41;4997242;28;20694;-70
2021/05/31 11:17:50;;;;;;;3.17;1.80;;;;;;;25.51;27.75;101799.91;5015140;28;20243;-71
2021/05/31 11:20:16;;;;;;;5.17;1.50;;;;;;;26.06;26.52;101792.44;5014797;28;20189;-69
2021/05/31 11:22:56;;;;;;;2.40;1.50;;;;;;;25.00;28.04;101790.47;4997507;28;20541;-71
2021/05/31 11:25:22;;;;;;;3.57;1.50;;;;;;;26.88;25.32;101784.75;4999678;28;20165;-70
2021/05/31 11:27:58;;;;;;;5.70;1.57;;;;;;;26.48;26.22;101784.38;4998371;28;20192;-72
2021/05/31 11:30:26;;;;;;;4.37;1.70;;;;;;;26.49;25.85;101785.25;4982138;28;20165;-72
2021/05/31 11:32:55;;;;;;;2.17;1.30;;;;;;;27.90;24.74;101784.53;5014581;28;20219;-70
2021/05/31 11:35:21;;;;;;;3.90;1.15;;;;;;;26.56;26.07;101767.13;4996778;28;20177;-71
2021/05/31 11:37:47;;;;;;;2.30;1.40;;;;;;;25.56;27.20;101781.16;4996646;28;20220;-71
2021/05/31 11:40:22;;;;;;;3.20;1.70;;;;;;;24.79;28.79;101779.75;5014208;28;20174;-69